sensor_id;sensor_type;location;lat;lon;timestamp;pressure;altitude;pressure_sealevel;temperature;humidity
11343;BME280;5726;42.160;24.746;2022-09-01T00:01:39;99259.00;;;23.66;90.67
11343;BME280;5726;42.160;24.746;2022-09-01T00:04:11;99250.53;;;23.85;89.42
11343;BME280;5726;42.160;24.746;2022-09-01T00:06:38;99244.25;;;23.81;89.44
11343;BME280;5726;42.160;24.746;2022-09-01T00:09:07;99234.88;;;23.86;89.62
11343;BME280;5726;42.160;24.746;2022-09-01T00:11:33;99228.53;;;23.71;89.55
11343;BME280;5726;42.160;24.746;2022-09-01T00:14:00;99239.34;;;23.57;91.65
11343;BME280;5726;42.160;24.746;2022-09-01T00:16:26;99230.09;;;23.72;89.59
11343;BME280;5726;42.160;24.746;2022-09-01T00:18:53;99231.00;;;23.40;91.41
11343;BME280;5726;42.160;24.746;2022-09-01T00:21:29;99236.38;;;23.30;92.81
11343;BME280;5726;42.160;24.746;2022-09-01T00:23:55;99235.31;;;23.41;92.18
11343;BME280;5726;42.160;24.746;2022-09-01T00:26:20;99237.09;;;23.66;90.57
11343;BME280;5726;42.160;24.746;2022-09-01T00:28:46;99231.00;;;23.90;88.88
11343;BME280;5726;42.160;24.746;2022-09-01T00:31:12;99235.34;;;23.98;87.89
11343;BME280;5726;42.160;24.746;2022-09-01T00:33:39;99238.38;;;23.79;88.89
11343;BME280;5726;42.160;24.746;2022-09-01T00:36:05;99244.00;;;24.07;86.74
11343;BME280;5726;42.160;24.746;2022-09-01T00:38:32;99244.31;;;23.88;88.13
11343;BME280;5726;42.160;24.746;2022-09-01T00:40:57;99252.84;;;23.80;89.07
11343;BME280;5726;42.160;24.746;2022-09-01T00:46:06;99232.34;;;23.63;89.99
11343;BME280;5726;42.160;24.746;2022-09-01T00:48:32;99231.63;;;23.66;88.90
11343;BME280;5726;42.160;24.746;2022-09-01T00:50:58;99221.25;;;23.46;90.40
11343;BME280;5726;42.160;24.746;2022-09-01T00:53:24;99227.53;;;23.47;90.81
11343;BME280;5726;42.160;24.746;2022-09-01T00:55:50;99225.78;;;23.25;92.82
11343;BME280;5726;42.160;24.746;2022-09-01T00:58:16;99235.88;;;23.14;93.53
11343;BME280;5726;42.160;24.746;2022-09-01T01:00:41;99235.97;;;23.28;92.65
11343;BME280;5726;42.160;24.746;2022-09-01T01:03:10;99232.88;;;23.33;93.15
11343;BME280;5726;42.160;24.746;2022-09-01T01:05:42;99232.84;;;23.26;93.53
11343;BME280;5726;42.160;24.746;2022-09-01T01:08:11;99243.25;;;23.13;94.91
11343;BME280;5726;42.160;24.746;2022-09-01T01:10:39;99256.38;;;23.37;93.65
11343;BME280;5726;42.160;24.746;2022-09-01T01:13:11;99241.84;;;23.26;94.31
11343;BME280;5726;42.160;24.746;2022-09-01T01:15:38;99238.16;;;23.12;96.13
11343;BME280;5726;42.160;24.746;2022-09-01T01:18:12;99236.44;;;22.94;97.54
11343;BME280;5726;42.160;24.746;2022-09-01T01:20:38;99238.81;;;22.99;97.57
11343;BME280;5726;42.160;24.746;2022-09-01T01:23:38;99230.53;;;22.92;98.87
11343;BME280;5726;42.160;24.746;2022-09-01T01:26:07;99233.53;;;23.16;96.55
11343;BME280;5726;42.160;24.746;2022-09-01T01:28:37;99222.75;;;22.58;100.00
11343;BME280;5726;42.160;24.746;2022-09-01T01:31:12;99229.88;;;22.69;100.00
11343;BME280;5726;42.160;24.746;2022-09-01T01:33:50;99237.56;;;22.93;99.38
11343;BME280;5726;42.160;24.746;2022-09-01T01:36:28;99232.09;;;22.57;100.00
11343;BME280;5726;42.160;24.746;2022-09-01T01:39:10;99226.00;;;22.70;100.00
11343;BME280;5726;42.160;24.746;2022-09-01T01:41:38;99236.59;;;22.75;100.00
11343;BME280;5726;42.160;24.746;2022-09-01T01:44:07;99237.41;;;22.79;100.00
11343;BME280;5726;42.160;24.746;2022-09-01T01:46:34;99238.47;;;22.67;100.00
11343;BME280;5726;42.160;24.746;2022-09-01T01:49:00;99237.19;;;22.58;100.00
11343;BME280;5726;42.160;24.746;2022-09-01T01:51:27;99237.78;;;22.77;100.00
11343;BME280;5726;42.160;24.746;2022-09-01T01:53:55;99247.47;;;23.04;98.09
11343;BME280;5726;42.160;24.746;2022-09-01T01:56:22;99243.78;;;22.54;100.00
11343;BME280;5726;42.160;24.746;2022-09-01T01:58:52;99239.78;;;22.44;100.00
11343;BME280;5726;42.160;24.746;2022-09-01T02:01:21;99239.16;;;22.58;100.00
11343;BME280;5726;42.160;24.746;2022-09-01T02:03:48;99240.50;;;22.74;100.00
11343;BME280;5726;42.160;24.746;2022-09-01T02:06:16;99235.28;;;22.62;100.00
11343;BME280;5726;42.160;24.746;2022-09-01T02:08:52;99241.63;;;22.69;100.00
11343;BME280;5726;42.160;24.746;2022-09-01T02:11:23;99237.88;;;22.84;100.00
11343;BME280;5726;42.160;24.746;2022-09-01T02:13:51;99245.75;;;22.93;99.35
11343;BME280;5726;42.160;24.746;2022-09-01T02:16:25;99245.88;;;23.00;99.57
11343;BME280;5726;42.160;24.746;2022-09-01T02:18:51;99246.72;;;23.07;98.91
11343;BME280;5726;42.160;24.746;2022-09-01T02:21:20;99244.88;;;23.18;98.41
11343;BME280;5726;42.160;24.746;2022-09-01T02:23:51;99245.34;;;23.27;96.47
11343;BME280;5726;42.160;24.746;2022-09-01T02:26:25;99250.06;;;23.30;96.44
11343;BME280;5726;42.160;24.746;2022-09-01T02:28:58;99243.41;;;23.27;96.08
11343;BME280;5726;42.160;24.746;2022-09-01T02:31:28;99248.44;;;23.22;96.45
11343;BME280;5726;42.160;24.746;2022-09-01T02:33:53;99251.66;;;23.31;96.39
11343;BME280;5726;42.160;24.746;2022-09-01T02:36:19;99246.25;;;23.38;96.04
11343;BME280;5726;42.160;24.746;2022-09-01T02:38:46;99244.28;;;23.38;95.35
11343;BME280;5726;42.160;24.746;2022-09-01T02:41:14;99234.63;;;23.51;95.24
11343;BME280;5726;42.160;24.746;2022-09-01T02:43:40;99238.41;;;23.36;95.40
11343;BME280;5726;42.160;24.746;2022-09-01T02:46:08;99243.06;;;23.36;95.06
11343;BME280;5726;42.160;24.746;2022-09-01T02:48:36;99241.25;;;23.50;94.42
11343;BME280;5726;42.160;24.746;2022-09-01T02:51:05;99240.91;;;23.12;96.68
11343;BME280;5726;42.160;24.746;2022-09-01T02:53:32;99246.06;;;23.17;95.91
11343;BME280;5726;42.160;24.746;2022-09-01T02:56:02;99250.69;;;23.13;96.49
11343;BME280;5726;42.160;24.746;2022-09-01T02:58:30;99249.06;;;23.05;96.22
11343;BME280;5726;42.160;24.746;2022-09-01T03:00:58;99241.03;;;22.86;97.69
11343;BME280;5726;42.160;24.746;2022-09-01T03:03:24;99243.63;;;22.72;98.01
11343;BME280;5726;42.160;24.746;2022-09-01T03:05:51;99241.25;;;22.38;100.00
11343;BME280;5726;42.160;24.746;2022-09-01T03:08:22;99233.16;;;22.19;100.00
11343;BME280;5726;42.160;24.746;2022-09-01T03:10:49;99231.88;;;22.10;100.00
11343;BME280;5726;42.160;24.746;2022-09-01T03:13:22;99239.81;;;21.93;100.00
11343;BME280;5726;42.160;24.746;2022-09-01T03:15:48;99236.81;;;22.01;100.00
11343;BME280;5726;42.160;24.746;2022-09-01T03:18:14;99237.59;;;22.02;100.00
11343;BME280;5726;42.160;24.746;2022-09-01T03:20:43;99244.47;;;22.18;100.00
11343;BME280;5726;42.160;24.746;2022-09-01T03:23:13;99250.34;;;22.20;100.00
11343;BME280;5726;42.160;24.746;2022-09-01T03:25:41;99251.63;;;22.26;100.00
11343;BME280;5726;42.160;24.746;2022-09-01T03:28:07;99251.28;;;22.05;100.00
11343;BME280;5726;42.160;24.746;2022-09-01T03:30:35;99252.25;;;21.64;100.00
11343;BME280;5726;42.160;24.746;2022-09-01T03:33:04;99258.69;;;21.53;100.00
11343;BME280;5726;42.160;24.746;2022-09-01T03:35:29;99258.59;;;21.46;100.00
11343;BME280;5726;42.160;24.746;2022-09-01T03:37:57;99258.31;;;21.32;100.00
11343;BME280;5726;42.160;24.746;2022-09-01T03:40:28;99264.47;;;21.26;100.00
11343;BME280;5726;42.160;24.746;2022-09-01T03:43:00;99263.84;;;21.36;100.00
11343;BME280;5726;42.160;24.746;2022-09-01T03:45:26;99261.38;;;21.27;100.00
11343;BME280;5726;42.160;24.746;2022-09-01T03:47:53;99252.09;;;21.32;100.00
11343;BME280;5726;42.160;24.746;2022-09-01T03:50:22;99250.28;;;21.17;100.00
11343;BME280;5726;42.160;24.746;2022-09-01T03:52:50;99257.72;;;21.42;100.00
11343;BME280;5726;42.160;24.746;2022-09-01T03:55:20;99254.63;;;21.44;100.00
11343;BME280;5726;42.160;24.746;2022-09-01T03:58:05;99258.13;;;21.44;100.00
11343;BME280;5726;42.160;24.746;2022-09-01T04:00:37;99260.44;;;21.20;100.00
11343;BME280;5726;42.160;24.746;2022-09-01T04:03:04;99253.31;;;21.12;100.00
11343;BME280;5726;42.160;24.746;2022-09-01T04:05:33;99257.66;;;21.39;100.00
11343;BME280;5726;42.160;24.746;2022-09-01T04:08:06;99253.50;;;21.00;100.00
11343;BME280;5726;42.160;24.746;2022-09-01T04:10:33;99258.59;;;20.83;100.00
11343;BME280;5726;42.160;24.746;2022-09-01T04:13:00;99263.69;;;20.84;100.00
11343;BME280;5726;42.160;24.746;2022-09-01T04:15:27;99265.06;;;21.16;100.00
11343;BME280;5726;42.160;24.746;2022-09-01T04:17:53;99260.78;;;21.15;100.00
11343;BME280;5726;42.160;24.746;2022-09-01T04:20:41;99252.94;;;21.36;100.00
11343;BME280;5726;42.160;24.746;2022-09-01T04:23:18;99250.38;;;21.68;100.00
11343;BME280;5726;42.160;24.746;2022-09-01T04:25:58;99258.94;;;21.67;100.00
11343;BME280;5726;42.160;24.746;2022-09-01T04:28:31;99256.56;;;21.91;100.00
11343;BME280;5726;42.160;24.746;2022-09-01T04:30:59;99257.19;;;22.07;100.00
11343;BME280;5726;42.160;24.746;2022-09-01T04:33:31;99251.00;;;22.10;100.00
11343;BME280;5726;42.160;24.746;2022-09-01T04:36:21;99249.59;;;22.49;99.50
11343;BME280;5726;42.160;24.746;2022-09-01T04:38:59;99255.31;;;22.73;97.50
11343;BME280;5726;42.160;24.746;2022-09-01T04:41:27;99265.41;;;22.98;94.69
11343;BME280;5726;42.160;24.746;2022-09-01T04:43:55;99264.41;;;23.16;92.53
11343;BME280;5726;42.160;24.746;2022-09-01T04:46:22;99262.59;;;23.31;91.59
11343;BME280;5726;42.160;24.746;2022-09-01T04:48:51;99265.88;;;23.47;89.29
11343;BME280;5726;42.160;24.746;2022-09-01T04:51:17;99273.34;;;23.56;86.01
11343;BME280;5726;42.160;24.746;2022-09-01T04:53:45;99271.44;;;23.57;86.19
11343;BME280;5726;42.160;24.746;2022-09-01T04:56:14;99270.81;;;23.77;85.12
11343;BME280;5726;42.160;24.746;2022-09-01T04:58:44;99263.88;;;23.94;84.32
11343;BME280;5726;42.160;24.746;2022-09-01T05:01:22;99268.81;;;24.31;82.35
11343;BME280;5726;42.160;24.746;2022-09-01T05:03:49;99263.31;;;24.28;81.86
11343;BME280;5726;42.160;24.746;2022-09-01T05:06:27;99265.88;;;24.67;79.59
11343;BME280;5726;42.160;24.746;2022-09-01T05:08:54;99264.38;;;24.94;77.27
11343;BME280;5726;42.160;24.746;2022-09-01T05:11:23;99263.47;;;24.52;78.16
11343;BME280;5726;42.160;24.746;2022-09-01T05:13:50;99267.31;;;24.41;78.74
11343;BME280;5726;42.160;24.746;2022-09-01T05:16:19;99252.50;;;24.55;77.39
11343;BME280;5726;42.160;24.746;2022-09-01T05:18:47;99262.22;;;24.36;79.19
11343;BME280;5726;42.160;24.746;2022-09-01T05:21:15;99258.06;;;24.80;76.76
11343;BME280;5726;42.160;24.746;2022-09-01T05:23:42;99258.16;;;25.04;74.03
11343;BME280;5726;42.160;24.746;2022-09-01T05:26:14;99257.41;;;25.07;77.46
11343;BME280;5726;42.160;24.746;2022-09-01T05:28:43;99257.41;;;25.62;73.64
11343;BME280;5726;42.160;24.746;2022-09-01T05:31:09;99259.78;;;25.88;72.47
11343;BME280;5726;42.160;24.746;2022-09-01T05:33:35;99256.63;;;25.72;71.62
11343;BME280;5726;42.160;24.746;2022-09-01T05:36:01;99253.88;;;25.62;72.70
11343;BME280;5726;42.160;24.746;2022-09-01T05:38:32;99259.00;;;25.88;72.15
11343;BME280;5726;42.160;24.746;2022-09-01T05:41:03;99258.13;;;26.36;70.31
11343;BME280;5726;42.160;24.746;2022-09-01T05:43:34;99263.19;;;26.44;70.17
11343;BME280;5726;42.160;24.746;2022-09-01T05:46:04;99270.13;;;26.76;68.08
11343;BME280;5726;42.160;24.746;2022-09-01T05:48:30;99276.53;;;27.27;66.78
11343;BME280;5726;42.160;24.746;2022-09-01T05:50:59;99271.78;;;27.35;64.42
11343;BME280;5726;42.160;24.746;2022-09-01T05:53:27;99271.19;;;27.06;65.21
11343;BME280;5726;42.160;24.746;2022-09-01T05:55:55;99269.25;;;26.97;67.61
11343;BME280;5726;42.160;24.746;2022-09-01T05:58:25;99264.09;;;27.05;66.05
11343;BME280;5726;42.160;24.746;2022-09-01T06:00:54;99264.19;;;27.52;64.61
11343;BME280;5726;42.160;24.746;2022-09-01T06:03:21;99271.78;;;27.35;63.97
11343;BME280;5726;42.160;24.746;2022-09-01T06:05:47;99271.66;;;27.55;63.78
11343;BME280;5726;42.160;24.746;2022-09-01T06:08:17;99276.16;;;27.76;63.06
11343;BME280;5726;42.160;24.746;2022-09-01T06:10:43;99275.03;;;27.70;62.79
11343;BME280;5726;42.160;24.746;2022-09-01T06:13:10;99273.81;;;27.74;63.03
11343;BME280;5726;42.160;24.746;2022-09-01T06:15:37;99268.63;;;27.83;61.12
11343;BME280;5726;42.160;24.746;2022-09-01T06:18:06;99268.88;;;27.55;61.38
11343;BME280;5726;42.160;24.746;2022-09-01T06:20:32;99277.03;;;27.69;61.04
11343;BME280;5726;42.160;24.746;2022-09-01T06:22:58;99275.03;;;27.73;60.65
11343;BME280;5726;42.160;24.746;2022-09-01T06:25:23;99268.41;;;27.67;60.94
11343;BME280;5726;42.160;24.746;2022-09-01T06:27:55;99267.28;;;27.58;60.92
11343;BME280;5726;42.160;24.746;2022-09-01T06:30:21;99266.88;;;27.59;60.92
11343;BME280;5726;42.160;24.746;2022-09-01T06:32:52;99266.84;;;27.63;60.96
11343;BME280;5726;42.160;24.746;2022-09-01T06:35:18;99269.84;;;27.82;59.97
11343;BME280;5726;42.160;24.746;2022-09-01T06:37:44;99267.94;;;28.16;58.93
11343;BME280;5726;42.160;24.746;2022-09-01T06:40:14;99270.50;;;28.66;56.71
11343;BME280;5726;42.160;24.746;2022-09-01T06:42:45;99273.66;;;28.65;57.39
11343;BME280;5726;42.160;24.746;2022-09-01T06:45:13;99259.31;;;28.80;56.86
11343;BME280;5726;42.160;24.746;2022-09-01T06:47:40;99261.66;;;28.82;56.86
11343;BME280;5726;42.160;24.746;2022-09-01T06:50:08;99259.38;;;29.03;56.30
11343;BME280;5726;42.160;24.746;2022-09-01T06:52:33;99252.75;;;29.27;54.63
11343;BME280;5726;42.160;24.746;2022-09-01T06:54:59;99254.22;;;29.57;54.39
11343;BME280;5726;42.160;24.746;2022-09-01T06:57:24;99263.81;;;29.49;53.80
11343;BME280;5726;42.160;24.746;2022-09-01T06:59:52;99261.13;;;29.69;53.79
11343;BME280;5726;42.160;24.746;2022-09-01T07:02:18;99262.28;;;29.48;53.47
11343;BME280;5726;42.160;24.746;2022-09-01T07:04:44;99261.13;;;29.69;52.99
11343;BME280;5726;42.160;24.746;2022-09-01T07:07:11;99261.25;;;29.62;53.43
11343;BME280;5726;42.160;24.746;2022-09-01T07:09:38;99271.09;;;29.89;52.58
11343;BME280;5726;42.160;24.746;2022-09-01T07:12:05;99264.72;;;29.92;52.99
11343;BME280;5726;42.160;24.746;2022-09-01T07:14:30;99260.38;;;29.91;53.01
11343;BME280;5726;42.160;24.746;2022-09-01T07:16:56;99256.41;;;29.92;53.44
11343;BME280;5726;42.160;24.746;2022-09-01T07:19:23;99258.31;;;29.72;53.61
11343;BME280;5726;42.160;24.746;2022-09-01T07:21:51;99249.19;;;29.75;53.77
11343;BME280;5726;42.160;24.746;2022-09-01T07:24:17;99254.72;;;29.75;53.95
11343;BME280;5726;42.160;24.746;2022-09-01T07:26:43;99260.25;;;29.98;53.14
11343;BME280;5726;42.160;24.746;2022-09-01T07:29:10;99252.63;;;30.25;51.85
11343;BME280;5726;42.160;24.746;2022-09-01T07:31:40;99250.72;;;29.80;53.16
11343;BME280;5726;42.160;24.746;2022-09-01T07:34:10;99246.53;;;30.14;52.73
11343;BME280;5726;42.160;24.746;2022-09-01T07:36:38;99247.59;;;30.20;52.63
11343;BME280;5726;42.160;24.746;2022-09-01T07:39:04;99243.47;;;30.28;52.39
11343;BME280;5726;42.160;24.746;2022-09-01T07:41:30;99238.50;;;30.19;51.64
11343;BME280;5726;42.160;24.746;2022-09-01T07:43:56;99233.47;;;30.14;51.99
11343;BME280;5726;42.160;24.746;2022-09-01T07:46:25;99242.13;;;30.16;51.44
11343;BME280;5726;42.160;24.746;2022-09-01T07:48:53;99234.88;;;30.22;50.37
11343;BME280;5726;42.160;24.746;2022-09-01T07:51:21;99231.13;;;30.13;51.80
11343;BME280;5726;42.160;24.746;2022-09-01T07:53:47;99231.66;;;30.27;50.97
11343;BME280;5726;42.160;24.746;2022-09-01T07:56:16;99229.03;;;30.59;49.39
11343;BME280;5726;42.160;24.746;2022-09-01T07:58:43;99228.16;;;30.81;48.96
11343;BME280;5726;42.160;24.746;2022-09-01T08:01:11;99224.06;;;31.05;47.46
11343;BME280;5726;42.160;24.746;2022-09-01T08:03:38;99228.38;;;31.41;46.54
11343;BME280;5726;42.160;24.746;2022-09-01T08:06:07;99226.63;;;31.47;45.54
11343;BME280;5726;42.160;24.746;2022-09-01T08:08:35;99225.47;;;31.29;46.03
11343;BME280;5726;42.160;24.746;2022-09-01T08:11:01;99225.63;;;31.22;45.18
11343;BME280;5726;42.160;24.746;2022-09-01T08:13:27;99225.47;;;31.29;45.44
11343;BME280;5726;42.160;24.746;2022-09-01T08:15:52;99226.16;;;31.17;45.51
11343;BME280;5726;42.160;24.746;2022-09-01T08:18:18;99221.28;;;31.21;45.58
11343;BME280;5726;42.160;24.746;2022-09-01T08:20:44;99231.31;;;31.50;45.22
11343;BME280;5726;42.160;24.746;2022-09-01T08:23:17;99225.34;;;31.51;44.15
11343;BME280;5726;42.160;24.746;2022-09-01T08:25:45;99220.31;;;31.46;43.99
11343;BME280;5726;42.160;24.746;2022-09-01T08:28:12;99221.41;;;31.49;44.86
11343;BME280;5726;42.160;24.746;2022-09-01T08:30:39;99220.66;;;31.48;44.70
11343;BME280;5726;42.160;24.746;2022-09-01T08:33:05;99225.22;;;31.39;45.09
11343;BME280;5726;42.160;24.746;2022-09-01T08:35:31;99213.19;;;31.61;44.50
11343;BME280;5726;42.160;24.746;2022-09-01T08:37:57;99208.31;;;31.81;44.98
11343;BME280;5726;42.160;24.746;2022-09-01T08:40:24;99216.56;;;31.69;44.92
11343;BME280;5726;42.160;24.746;2022-09-01T08:45:48;99201.50;;;31.54;44.85
11343;BME280;5726;42.160;24.746;2022-09-01T08:50:55;99193.47;;;31.43;45.60
11343;BME280;5726;42.160;24.746;2022-09-01T08:53:27;99198.47;;;31.48;45.12
11343;BME280;5726;42.160;24.746;2022-09-01T08:55:56;99183.16;;;31.44;45.71
11343;BME280;5726;42.160;24.746;2022-09-01T08:58:23;99186.50;;;30.49;47.36
11343;BME280;5726;42.160;24.746;2022-09-01T09:00:55;99188.50;;;31.03;46.38
11343;BME280;5726;42.160;24.746;2022-09-01T09:06:16;99185.72;;;31.35;45.60
11343;BME280;5726;42.160;24.746;2022-09-01T09:16:52;99180.84;;;31.07;46.13
11343;BME280;5726;42.160;24.746;2022-09-01T09:19:23;99177.84;;;31.02;45.96
11343;BME280;5726;42.160;24.746;2022-09-01T09:21:51;99168.28;;;31.03;46.37
11343;BME280;5726;42.160;24.746;2022-09-01T09:27:48;99162.25;;;30.92;47.40
11343;BME280;5726;42.160;24.746;2022-09-01T09:30:20;99161.13;;;31.05;46.15
11343;BME280;5726;42.160;24.746;2022-09-01T09:32:56;99152.09;;;31.01;46.35
11343;BME280;5726;42.160;24.746;2022-09-01T09:38:16;99147.53;;;31.11;46.39
11343;BME280;5726;42.160;24.746;2022-09-01T09:41:13;99145.97;;;30.94;45.44
11343;BME280;5726;42.160;24.746;2022-09-01T09:43:47;99156.28;;;30.74;45.58
11343;BME280;5726;42.160;24.746;2022-09-01T09:54:26;99138.19;;;31.05;45.34
11343;BME280;5726;42.160;24.746;2022-09-01T09:57:21;99138.88;;;31.09;46.16
11343;BME280;5726;42.160;24.746;2022-09-01T10:02:32;99135.22;;;31.28;45.40
11343;BME280;5726;42.160;24.746;2022-09-01T10:05:00;99135.06;;;31.03;45.48
11343;BME280;5726;42.160;24.746;2022-09-01T10:07:31;99124.84;;;31.00;45.79
11343;BME280;5726;42.160;24.746;2022-09-01T10:10:00;99126.03;;;30.83;46.84
11343;BME280;5726;42.160;24.746;2022-09-01T10:12:26;99114.63;;;30.97;46.63
11343;BME280;5726;42.160;24.746;2022-09-01T10:15:08;99124.84;;;31.00;45.91
11343;BME280;5726;42.160;24.746;2022-09-01T10:17:38;99109.09;;;31.13;46.05
11343;BME280;5726;42.160;24.746;2022-09-01T10:20:07;99109.25;;;31.06;45.65
11343;BME280;5726;42.160;24.746;2022-09-01T10:22:36;99108.41;;;30.93;46.37
11343;BME280;5726;42.160;24.746;2022-09-01T10:25:04;99101.63;;;30.94;46.54
11343;BME280;5726;42.160;24.746;2022-09-01T10:27:34;99099.03;;;30.87;46.44
11343;BME280;5726;42.160;24.746;2022-09-01T10:30:18;99101.75;;;31.06;46.97
11343;BME280;5726;42.160;24.746;2022-09-01T10:32:56;99102.50;;;31.07;46.42
11343;BME280;5726;42.160;24.746;2022-09-01T10:35:29;99097.75;;;31.07;46.57
11343;BME280;5726;42.160;24.746;2022-09-01T10:37:57;99108.06;;;31.07;46.26
11343;BME280;5726;42.160;24.746;2022-09-01T10:42:54;99100.19;;;31.05;47.00
11343;BME280;5726;42.160;24.746;2022-09-01T10:45:35;99099.13;;;31.15;47.20
11343;BME280;5726;42.160;24.746;2022-09-01T10:50:50;99095.22;;;31.13;46.54
11343;BME280;5726;42.160;24.746;2022-09-01T11:04:10;99077.38;;;31.45;48.05
11343;BME280;5726;42.160;24.746;2022-09-01T11:14:58;99065.97;;;31.12;46.94
11343;BME280;5726;42.160;24.746;2022-09-01T11:17:36;99071.06;;;31.29;46.78
11343;BME280;5726;42.160;24.746;2022-09-01T11:20:23;99063.94;;;31.44;45.81
11343;BME280;5726;42.160;24.746;2022-09-01T11:30:55;99053.34;;;31.11;46.16
11343;BME280;5726;42.160;24.746;2022-09-01T11:36:14;99047.56;;;31.78;44.38
11343;BME280;5726;42.160;24.746;2022-09-01T11:39:01;99043.06;;;31.68;43.82
11343;BME280;5726;42.160;24.746;2022-09-01T11:41:30;99038.66;;;31.70;44.26
11343;BME280;5726;42.160;24.746;2022-09-01T11:43:59;99052.28;;;31.65;43.96
11343;BME280;5726;42.160;24.746;2022-09-01T11:46:33;99043.94;;;31.52;42.58
11343;BME280;5726;42.160;24.746;2022-09-01T11:49:06;99040.47;;;31.33;43.27
11343;BME280;5726;42.160;24.746;2022-09-01T11:51:44;99030.50;;;31.51;42.77
11343;BME280;5726;42.160;24.746;2022-09-01T11:54:10;99031.34;;;31.76;42.53
11343;BME280;5726;42.160;24.746;2022-09-01T11:56:36;99033.19;;;31.67;42.32
11343;BME280;5726;42.160;24.746;2022-09-01T11:59:02;99028.09;;;31.65;42.54
11343;BME280;5726;42.160;24.746;2022-09-01T12:01:36;99024.44;;;31.68;41.72
11343;BME280;5726;42.160;24.746;2022-09-01T12:07:08;99007.31;;;31.45;42.22
11343;BME280;5726;42.160;24.746;2022-09-01T12:09:43;99000.59;;;31.58;42.07
11343;BME280;5726;42.160;24.746;2022-09-01T12:12:28;99006.25;;;31.67;41.96
11343;BME280;5726;42.160;24.746;2022-09-01T12:14:57;98998.59;;;31.71;41.10
11343;BME280;5726;42.160;24.746;2022-09-01T12:17:25;98988.47;;;31.93;41.51
11343;BME280;5726;42.160;24.746;2022-09-01T12:19:51;98993.88;;;31.84;41.98
11343;BME280;5726;42.160;24.746;2022-09-01T12:22:18;98994.41;;;31.79;41.51
11343;BME280;5726;42.160;24.746;2022-09-01T12:24:51;98986.25;;;32.00;40.41
11343;BME280;5726;42.160;24.746;2022-09-01T12:27:18;98981.28;;;32.08;40.30
11343;BME280;5726;42.160;24.746;2022-09-01T12:29:44;98986.69;;;32.11;39.81
11343;BME280;5726;42.160;24.746;2022-09-01T12:32:12;98977.72;;;32.07;39.57
11343;BME280;5726;42.160;24.746;2022-09-01T12:39:40;98967.50;;;32.29;39.41
11343;BME280;5726;42.160;24.746;2022-09-01T12:44:44;98977.16;;;32.49;38.39
11343;BME280;5726;42.160;24.746;2022-09-01T12:47:42;98976.03;;;32.35;37.69
11343;BME280;5726;42.160;24.746;2022-09-01T12:50:01;98971.16;;;32.38;37.47
11343;BME280;5726;42.160;24.746;2022-09-01T12:52:28;98966.94;;;32.34;38.03
11343;BME280;5726;42.160;24.746;2022-09-01T12:55:14;98965.94;;;32.40;39.23
11343;BME280;5726;42.160;24.746;2022-09-01T12:57:44;98962.84;;;32.51;38.80
11343;BME280;5726;42.160;24.746;2022-09-01T13:00:23;98971.91;;;32.76;38.56
11343;BME280;5726;42.160;24.746;2022-09-01T13:02:51;98973.47;;;32.65;38.27
11343;BME280;5726;42.160;24.746;2022-09-01T13:08:00;98969.97;;;32.52;38.28
11343;BME280;5726;42.160;24.746;2022-09-01T13:10:32;98963.50;;;32.30;38.60
11343;BME280;5726;42.160;24.746;2022-09-01T13:12:58;98961.50;;;32.31;38.88
11343;BME280;5726;42.160;24.746;2022-09-01T13:15:26;98959.84;;;32.45;37.99
11343;BME280;5726;42.160;24.746;2022-09-01T13:17:52;98958.59;;;32.71;37.62
11343;BME280;5726;42.160;24.746;2022-09-01T13:20:18;98954.81;;;32.65;38.51
11343;BME280;5726;42.160;24.746;2022-09-01T13:22:43;98959.44;;;32.81;38.96
11343;BME280;5726;42.160;24.746;2022-09-01T13:25:13;98958.13;;;32.73;38.59
11343;BME280;5726;42.160;24.746;2022-09-01T13:27:40;98960.94;;;32.60;38.08
11343;BME280;5726;42.160;24.746;2022-09-01T13:30:12;98954.72;;;32.32;39.14
11343;BME280;5726;42.160;24.746;2022-09-01T13:32:40;98948.28;;;32.10;38.84
11343;BME280;5726;42.160;24.746;2022-09-01T13:35:06;98948.63;;;31.99;38.99
11343;BME280;5726;42.160;24.746;2022-09-01T13:37:32;98939.88;;;32.01;38.87
11343;BME280;5726;42.160;24.746;2022-09-01T13:39:57;98956.91;;;31.87;40.22
11343;BME280;5726;42.160;24.746;2022-09-01T13:42:23;98957.50;;;31.94;39.77
11343;BME280;5726;42.160;24.746;2022-09-01T13:44:48;98945.50;;;31.85;39.90
11343;BME280;5726;42.160;24.746;2022-09-01T13:47:14;98943.19;;;31.96;39.17
11343;BME280;5726;42.160;24.746;2022-09-01T13:49:39;98945.69;;;31.66;39.83
11343;BME280;5726;42.160;24.746;2022-09-01T13:52:05;98952.59;;;31.74;39.36
11343;BME280;5726;42.160;24.746;2022-09-01T13:54:30;98953.09;;;31.56;38.76
11343;BME280;5726;42.160;24.746;2022-09-01T13:56:56;98949.16;;;31.82;39.05
11343;BME280;5726;42.160;24.746;2022-09-01T13:59:21;98944.25;;;31.86;39.37
11343;BME280;5726;42.160;24.746;2022-09-01T14:01:47;98947.59;;;31.81;38.96
11343;BME280;5726;42.160;24.746;2022-09-01T14:04:12;98939.84;;;31.76;39.55
11343;BME280;5726;42.160;24.746;2022-09-01T14:06:39;98935.75;;;31.81;39.39
11343;BME280;5726;42.160;24.746;2022-09-01T14:09:05;98937.00;;;31.51;39.40
11343;BME280;5726;42.160;24.746;2022-09-01T14:11:30;98930.72;;;31.63;39.40
11343;BME280;5726;42.160;24.746;2022-09-01T14:13:56;98942.50;;;31.67;39.62
11343;BME280;5726;42.160;24.746;2022-09-01T14:16:22;98940.25;;;31.62;39.35
11343;BME280;5726;42.160;24.746;2022-09-01T14:18:47;98938.38;;;31.72;39.15
11343;BME280;5726;42.160;24.746;2022-09-01T14:21:14;98937.03;;;31.64;38.85
11343;BME280;5726;42.160;24.746;2022-09-01T14:23:43;98931.16;;;31.49;39.64
11343;BME280;5726;42.160;24.746;2022-09-01T14:26:13;98927.75;;;31.70;39.47
11343;BME280;5726;42.160;24.746;2022-09-01T14:28:41;98936.47;;;31.56;40.14
11343;BME280;5726;42.160;24.746;2022-09-01T14:31:11;98928.81;;;31.60;39.89
11343;BME280;5726;42.160;24.746;2022-09-01T14:33:38;98931.59;;;31.60;39.41